หน้าหลัก
METAR-TAF:

METAR-TAF

ท่าอากาศยาน :

Yap, ไมโครนีเซีย

ละติจูด: 09-29N, ลองจิจูด: 138-05E, ความสูง: 28 ม.

การสังเกตสภาพอากาศปัจจุบัน

รายงานได้ทำขึ้นเมื่อ 1 ชั่วโมงและ 11 นาทีที่แล้ว ณ เวลา 17:54 UTC
ลม 6 นอตจากทิศทางซึ่งแปรผันได้
อุณหภูมิ 27°C
ความชื้น 94%
ความกดอากาศ 1010 hPa
ทัศนวิสัย: 19.3 กม.
มีเมฆน้อยที่ความสูง 1600 ฟุต
มีเมฆกระจายเป็นบางส่วนที่ความสูง 13000 ฟุต
มีเมฆเป็นส่วนมากเว้นเป็นระยะที่ความสูง 30000 ฟุต

METAR: PTYA 271754Z VRB06KT 12SM FEW016 SCT130 BKN300 27/26 A2983 RMK SLP101 60021 8/171 T02740256 10286 20261 57002

เวลา: 05:05 (19:05 UTC)

การพยากรณ์

รายงานได้ทำขึ้นเมื่อ 1 ชั่วโมงและ 45 นาทีที่แล้ว ณ เวลา 17:20 UTC
การพยากรณ์มีผลตั้งแต่วันที่ 27 ณ เวลา 18 UTC จนถึงวันที่ 28 ณ เวลา 18 UTC
ลม 12 นอตจากตะวันออก
ทัศนวิสัย: 10 กม.
มีเมฆกระจายเป็นบางส่วนที่ความสูง 1600 ฟุต
มีเมฆกระจายเป็นบางส่วนที่ความสูง 13000 ฟุต
การโปรยปรายในบริเวณใกล้เคียง,

TAF: PTYA 271720Z 2718/2818 09012KT P6SM VCSH SCT016 SCT130

สังเกตการณ์สภาพอากาศและพยากรณ์อากาศของสนามบินมากกว่า 4000 แห่ง (รายงาน METAR และ TAF).

สถานีที่ดูได้จะแสดงไว้ด้วยจุดสีเหลืองและสีแดงบนแผนที่.

เลื่อนเมาส์ไปเหนือจุดเพื่อดูชื่อสถานี.

แล้วคลิกเพื่อดูสังเกตการณ์และการพยากรณ์สภาพอากาศ.

ในการเปลี่ยนแผนที่: คลิกที่ปุ่มสีเขียวที่มีกากบาทสีดำเพื่อซูมเข้า; ที่ปุ่มสีเขียวที่มีขีดเพื่อซูมออก; หรือที่ลูกศรสีเขียวเพื่อไปยังแผนที่ที่อยู่ติดกัน.


METAR-TAF: